Time;durP1;ratioP1;P1;durP2;ratioP2;P2;SDS_P1;SDS_P2;PMS_P1;PMS_P2;Temp;Humidity;BMP_temperature;BMP_pressure;BME280_temperature;BME280_humidity;BME280_pressure;Samples;Min_cycle;Max_cycle;Signal;HPM_P1;HPM_P2
2022/04/23 00:00:39;;;;;;;24.87;14.07;;;7.80;90.80;;;;;;5004047;28;20184;-59
2022/04/23 00:03:05;;;;;;;19.53;13.93;;;7.80;91.00;;;;;;5018113;28;20518;-59
2022/04/23 00:05:31;;;;;;;19.30;13.37;;;7.80;91.40;;;;;;5021010;28;20181;-57
2022/04/23 00:07:57;;;;;;;20.13;14.43;;;7.80;91.50;;;;;;5022572;28;20535;-59
2022/04/23 00:10:23;;;;;;;21.80;14.23;;;7.80;91.60;;;;;;5013665;28;20211;-59
2022/04/23 00:12:50;;;;;;;19.37;13.30;;;7.80;91.60;;;;;;5010074;28;20412;-59
2022/04/23 00:15:15;;;;;;;23.00;14.60;;;7.80;91.60;;;;;;5011766;28;20450;-59
2022/04/23 00:17:43;;;;;;;18.37;13.30;;;7.80;92.00;;;;;;5020390;28;20435;-59
2022/04/23 00:20:11;;;;;;;22.47;14.17;;;7.80;91.80;;;;;;5024093;28;20191;-59
2022/04/23 00:22:37;;;;;;;24.03;14.10;;;7.80;91.90;;;;;;5020615;28;20527;-58
2022/04/23 00:25:03;;;;;;;20.93;14.67;;;7.80;92.10;;;;;;5007586;28;20477;-59
2022/04/23 00:27:29;;;;;;;17.10;12.80;;;7.80;92.30;;;;;;5029995;28;20442;-58
2022/04/23 00:29:55;;;;;;;21.63;15.13;;;7.80;92.30;;;;;;5031847;28;20428;-58
2022/04/23 00:32:20;;;;;;;19.97;14.07;;;7.70;92.70;;;;;;5016753;28;20279;-58
2022/04/23 00:34:46;;;;;;;23.17;15.13;;;7.70;93.10;;;;;;5008990;28;20187;-60
2022/04/23 00:37:11;;;;;;;22.00;13.90;;;7.70;93.40;;;;;;5010747;28;20562;-58
2022/04/23 00:39:37;;;;;;;21.77;14.83;;;7.70;93.60;;;;;;5021241;28;20230;-58
2022/04/23 00:42:09;;;;;;;21.53;14.63;;;7.70;93.40;;;;;;5020518;28;20184;-58
2022/04/23 00:44:38;;;;;;;23.33;14.70;;;7.70;93.70;;;;;;5011363;28;20263;-60
2022/04/23 00:47:04;;;;;;;24.67;15.73;;;7.70;93.70;;;;;;5018330;28;20457;-59
2022/04/23 00:49:30;;;;;;;22.90;14.97;;;7.70;93.50;;;;;;5028357;28;20508;-58
2022/04/23 00:51:56;;;;;;;22.87;14.70;;;7.70;93.70;;;;;;5020527;28;20419;-58
2022/04/23 00:54:22;;;;;;;19.80;13.90;;;7.70;93.80;;;;;;5012850;28;20503;-58
2022/04/23 00:56:48;;;;;;;24.20;14.57;;;7.70;93.90;;;;;;5022181;28;20732;-57
2022/04/23 00:59:14;;;;;;;24.97;16.13;;;7.70;94.10;;;;;;5016421;28;20224;-60
2022/04/23 01:01:41;;;;;;;22.43;15.27;;;7.70;94.40;;;;;;5024396;28;20457;-59
2022/04/23 01:04:12;;;;;;;22.50;15.43;;;7.60;94.70;;;;;;5030777;28;20502;-58
2022/04/23 01:06:38;;;;;;;29.93;15.37;;;7.60;94.70;;;;;;5015981;28;20431;-58
2022/04/23 01:09:07;;;;;;;26.70;15.83;;;7.60;95.00;;;;;;5014074;28;20466;-59
2022/04/23 01:11:34;;;;;;;20.77;15.47;;;7.60;95.20;;;;;;5021924;28;20443;-59
2022/04/23 01:14:03;;;;;;;28.40;14.03;;;7.60;95.50;;;;;;5032651;28;20430;-59
2022/04/23 01:16:29;;;;;;;21.23;15.07;;;7.50;95.20;;;;;;5016924;28;20446;-59
2022/04/23 01:18:54;;;;;;;23.90;15.43;;;7.50;95.50;;;;;;5011139;28;20536;-58
2022/04/23 01:21:20;;;;;;;23.97;15.20;;;7.50;95.60;;;;;;5032468;28;20191;-57
2022/04/23 01:23:53;;;;;;;23.23;15.87;;;7.50;95.70;;;;;;5024489;28;20171;-57
2022/04/23 01:26:29;;;;;;;24.93;15.10;;;7.50;95.70;;;;;;5017099;28;20203;-58
2022/04/23 01:28:57;;;;;;;23.40;15.03;;;7.40;96.00;;;;;;5008698;28;20446;-59
2022/04/23 01:31:23;;;;;;;21.70;15.10;;;7.40;96.50;;;;;;5016520;28;21157;-58
2022/04/23 01:33:49;;;;;;;20.83;14.70;;;7.40;97.00;;;;;;5019756;28;20458;-58
2022/04/23 01:36:15;;;;;;;25.53;16.40;;;7.40;97.20;;;;;;5018696;28;20447;-58
2022/04/23 01:38:42;;;;;;;23.30;16.30;;;7.40;97.40;;;;;;5009275;28;20238;-59
2022/04/23 01:41:08;;;;;;;28.93;16.80;;;7.40;97.40;;;;;;5023651;28;21042;-58
2022/04/23 01:43:33;;;;;;;23.00;15.83;;;7.40;97.20;;;;;;5016687;28;20613;-58
2022/04/23 01:45:59;;;;;;;23.80;15.40;;;7.40;96.90;;;;;;5011678;28;20259;-58
2022/04/23 01:48:24;;;;;;;22.80;16.23;;;7.40;96.80;;;;;;5021589;28;20656;-58
2022/04/23 01:50:51;;;;;;;25.30;16.23;;;7.40;96.80;;;;;;5024865;28;20271;-59
2022/04/23 01:53:18;;;;;;;31.00;18.17;;;7.30;96.80;;;;;;5010097;28;20263;-59
2022/04/23 01:55:44;;;;;;;29.10;18.73;;;7.30;97.40;;;;;;5015732;28;20449;-59
2022/04/23 01:58:09;;;;;;;31.80;19.83;;;7.30;97.70;;;;;;5015001;28;21087;-58
2022/04/23 02:00:36;;;;;;;27.83;17.03;;;7.30;98.10;;;;;;5022875;28;20642;-58
2022/04/23 02:03:02;;;;;;;24.87;17.10;;;7.30;98.60;;;;;;5031248;28;20192;-59
2022/04/23 02:05:28;;;;;;;26.50;17.70;;;7.30;98.50;;;;;;5006970;28;20439;-59
2022/04/23 02:07:54;;;;;;;27.00;16.60;;;7.30;98.60;;;;;;5019645;28;20527;-60
2022/04/23 02:10:19;;;;;;;27.83;17.83;;;7.30;98.90;;;;;;5022177;28;20641;-59
2022/04/23 02:12:46;;;;;;;24.67;17.00;;;7.30;99.20;;;;;;5026690;28;20199;-59
2022/04/23 02:15:14;;;;;;;28.00;17.87;;;7.30;99.00;;;;;;5015242;28;20183;-59
2022/04/23 02:17:41;;;;;;;25.50;17.00;;;7.30;99.20;;;;;;5019100;28;20440;-58
2022/04/23 02:20:12;;;;;;;23.47;17.10;;;7.30;99.50;;;;;;5026979;28;20528;-58
2022/04/23 02:22:38;;;;;;;27.67;18.10;;;7.30;99.90;;;;;;5026246;28;20468;-57
2022/04/23 02:25:05;;;;;;;26.20;17.13;;;7.30;99.90;;;;;;5022468;28;20940;-59
2022/04/23 02:27:48;;;;;;;27.43;17.57;;;7.30;99.90;;;;;;5024747;28;20203;-58
2022/04/23 02:30:15;;;;;;;27.07;17.30;;;7.30;99.90;;;;;;5010230;28;20574;-58
2022/04/23 02:32:42;;;;;;;28.60;18.50;;;7.30;99.90;;;;;;5015335;28;20423;-58
2022/04/23 02:35:09;;;;;;;27.90;17.57;;;7.30;99.90;;;;;;5019046;28;20442;-59
2022/04/23 02:37:35;;;;;;;26.77;17.73;;;7.30;99.90;;;;;;5013480;28;20495;-58
2022/04/23 02:40:05;;;;;;;29.10;18.27;;;7.30;99.90;;;;;;5004442;28;20877;-58
2022/04/23 02:42:33;;;;;;;29.20;19.07;;;7.30;99.90;;;;;;5026198;28;20179;-61
2022/04/23 02:45:00;;;;;;;29.97;19.47;;;7.30;99.90;;;;;;5016071;28;20486;-58
2022/04/23 02:47:29;;;;;;;29.30;18.60;;;7.30;99.90;;;;;;5018409;28;20485;-58
2022/04/23 02:49:55;;;;;;;25.07;17.80;;;7.30;99.90;;;;;;5022501;28;20466;-59
2022/04/23 02:52:21;;;;;;;31.70;19.70;;;7.30;99.90;;;;;;5019674;28;20451;-58
2022/04/23 02:54:47;;;;;;;27.70;18.90;;;7.30;99.90;;;;;;5016819;28;20927;-58
2022/04/23 02:57:13;;;;;;;31.90;18.90;;;7.30;99.90;;;;;;5026980;28;20194;-58
2022/04/23 02:59:39;;;;;;;26.57;17.87;;;7.30;99.90;;;;;;5026816;28;20202;-57
2022/04/23 03:02:05;;;;;;;36.30;20.60;;;7.30;99.90;;;;;;5016526;28;20222;-58
2022/04/23 03:04:31;;;;;;;36.97;21.50;;;7.30;99.90;;;;;;5025771;28;20467;-59
2022/04/23 03:06:57;;;;;;;46.80;23.00;;;7.30;99.90;;;;;;5035566;28;20434;-59
2022/04/23 03:09:23;;;;;;;42.13;24.27;;;7.40;99.90;;;;;;5013684;28;20438;-59
2022/04/23 03:11:48;;;;;;;35.00;22.17;;;7.40;99.90;;;;;;5015162;28;20318;-58
2022/04/23 03:14:15;;;;;;;34.40;21.17;;;7.50;99.90;;;;;;5028910;28;20676;-59
2022/04/23 03:16:41;;;;;;;39.50;22.50;;;7.50;99.90;;;;;;5015048;28;20171;-60
2022/04/23 03:19:07;;;;;;;36.37;21.10;;;7.60;99.90;;;;;;5012335;28;20489;-58
2022/04/23 03:21:33;;;;;;;31.33;21.10;;;7.60;99.90;;;;;;5019800;28;20281;-58
2022/04/23 03:23:58;;;;;;;31.50;20.10;;;7.60;99.90;;;;;;5022862;28;20186;-59
2022/04/23 03:26:24;;;;;;;32.70;21.10;;;7.50;99.90;;;;;;5015108;28;20264;-58
2022/04/23 03:28:49;;;;;;;38.03;22.33;;;7.50;99.90;;;;;;5021331;28;20286;-58
2022/04/23 03:31:15;;;;;;;41.33;23.97;;;7.50;99.90;;;;;;4999391;28;20230;-58
2022/04/23 03:33:41;;;;;;;39.20;24.03;;;7.50;99.90;;;;;;4997102;28;20192;-58
2022/04/23 03:36:06;;;;;;;40.93;25.47;;;7.60;99.90;;;;;;5022509;28;20263;-59
2022/04/23 03:38:32;;;;;;;45.67;26.50;;;7.60;99.90;;;;;;5017670;28;20254;-59
2022/04/23 03:40:58;;;;;;;38.77;24.87;;;7.70;99.90;;;;;;5024051;28;20211;-59
2022/04/23 03:43:25;;;;;;;38.33;25.43;;;7.70;99.90;;;;;;5017911;28;20458;-59
2022/04/23 03:45:52;;;;;;;40.97;24.57;;;7.80;99.90;;;;;;5015955;28;20435;-60
2022/04/23 03:48:18;;;;;;;38.13;24.70;;;7.90;99.90;;;;;;5013819;28;20911;-58
2022/04/23 03:50:43;;;;;;;45.17;27.53;;;7.90;99.90;;;;;;5023450;28;20434;-57
2022/04/23 03:53:09;;;;;;;38.73;25.37;;;7.90;99.90;;;;;;5026718;28;20179;-58
2022/04/23 03:55:35;;;;;;;43.57;26.73;;;7.90;99.90;;;;;;5018044;28;20212;-58
2022/04/23 03:58:01;;;;;;;43.27;25.60;;;8.00;99.90;;;;;;5026393;28;20187;-59
2022/04/23 04:00:28;;;;;;;46.60;27.13;;;8.00;99.90;;;;;;5023105;28;20802;-57
2022/04/23 04:02:55;;;;;;;45.97;27.67;;;8.00;99.90;;;;;;5015715;28;20180;-58
2022/04/23 04:05:22;;;;;;;41.57;26.70;;;8.10;99.90;;;;;;5011663;28;20819;-58
2022/04/23 04:07:48;;;;;;;42.90;26.47;;;8.10;99.90;;;;;;5009627;28;20876;-59
2022/04/23 04:10:20;;;;;;;44.80;26.80;;;8.10;99.90;;;;;;5021482;28;20434;-58
2022/04/23 04:12:46;;;;;;;44.80;26.50;;;8.20;99.90;;;;;;5023657;28;20430;-58
2022/04/23 04:15:15;;;;;;;47.03;27.87;;;8.20;99.90;;;;;;5025460;28;20431;-58
2022/04/23 04:17:41;;;;;;;41.70;25.73;;;8.20;99.90;;;;;;5018059;28;20434;-58
2022/04/23 04:20:12;;;;;;;41.37;26.00;;;8.20;99.90;;;;;;5025102;28;20441;-58
2022/04/23 04:22:42;;;;;;;42.20;26.30;;;8.20;99.90;;;;;;5031975;28;20521;-57
2022/04/23 04:25:09;;;;;;;39.07;25.17;;;8.20;99.90;;;;;;5015976;28;20501;-57
2022/04/23 04:27:35;;;;;;;52.70;28.60;;;8.30;99.90;;;;;;5017415;28;20843;-58
2022/04/23 04:30:03;;;;;;;45.60;27.03;;;8.30;99.90;;;;;;5029748;28;20455;-60
2022/04/23 04:32:29;;;;;;;44.87;27.53;;;8.30;99.90;;;;;;5025065;28;20426;-56
2022/04/23 04:34:55;;;;;;;44.57;27.20;;;8.40;99.90;;;;;;5016741;28;20439;-58
2022/04/23 04:37:20;;;;;;;43.87;27.03;;;8.40;99.90;;;;;;5015672;28;20172;-59
2022/04/23 04:39:46;;;;;;;44.57;28.03;;;8.40;99.90;;;;;;5023578;28;20276;-59
2022/04/23 04:42:12;;;;;;;43.53;27.17;;;8.50;99.90;;;;;;5027904;28;20210;-58
2022/04/23 04:44:38;;;;;;;42.50;27.07;;;8.40;99.90;;;;;;5024933;28;20520;-59
2022/04/23 04:47:04;;;;;;;45.27;27.70;;;8.50;99.90;;;;;;5018149;28;20187;-59
2022/04/23 04:49:30;;;;;;;49.43;27.13;;;8.50;99.90;;;;;;5017404;28;20473;-57
2022/04/23 04:51:56;;;;;;;42.73;26.97;;;8.60;99.90;;;;;;5027483;28;20958;-58
2022/04/23 04:54:22;;;;;;;41.30;26.17;;;8.60;99.90;;;;;;5015368;28;20427;-57
2022/04/23 04:56:51;;;;;;;45.40;27.27;;;8.60;99.90;;;;;;5009218;28;20176;-57
2022/04/23 04:59:18;;;;;;;42.37;25.03;;;8.70;99.90;;;;;;5022676;28;20484;-58
2022/04/23 05:01:44;;;;;;;45.07;27.37;;;8.70;99.90;;;;;;5022062;28;20452;-58
2022/04/23 05:04:10;;;;;;;47.63;27.37;;;8.70;99.90;;;;;;5023346;28;20423;-58
2022/04/23 05:06:36;;;;;;;43.63;26.70;;;8.70;99.90;;;;;;5010172;28;20180;-58
2022/04/23 05:09:02;;;;;;;42.87;26.97;;;8.70;99.90;;;;;;5026612;28;20466;-57
2022/04/23 05:11:28;;;;;;;45.03;26.30;;;8.80;99.90;;;;;;5016690;28;21101;-57
2022/04/23 05:13:53;;;;;;;43.37;27.87;;;8.80;99.90;;;;;;5033781;28;20454;-58
2022/04/23 05:16:19;;;;;;;43.07;26.00;;;8.80;99.90;;;;;;5001269;28;20173;-58
2022/04/23 05:18:45;;;;;;;41.27;25.00;;;8.80;99.90;;;;;;5023019;28;20242;-58
2022/04/23 05:21:11;;;;;;;40.07;25.53;;;8.80;99.90;;;;;;5027710;28;20192;-58
2022/04/23 05:23:37;;;;;;;41.37;23.90;;;8.80;99.90;;;;;;5012030;28;20180;-59
2022/04/23 05:26:04;;;;;;;43.97;24.30;;;8.80;99.90;;;;;;5021266;22;20922;-60
2022/04/23 05:28:34;;;;;;;41.53;24.83;;;8.90;99.90;;;;;;5008145;28;20497;-61
2022/04/23 05:31:00;;;;;;;39.30;25.33;;;8.90;99.90;;;;;;5005870;28;20439;-61
2022/04/23 05:33:26;;;;;;;40.97;25.73;;;8.90;99.90;;;;;;5010329;28;20438;-62
2022/04/23 05:35:52;;;;;;;42.13;24.60;;;9.00;99.90;;;;;;5007091;28;20952;-60
2022/04/23 05:38:21;;;;;;;40.63;25.50;;;9.00;99.90;;;;;;5014130;28;20565;-60
2022/04/23 05:40:48;;;;;;;39.70;24.60;;;9.10;99.90;;;;;;5001391;28;20180;-60
2022/04/23 05:43:14;;;;;;;40.20;24.83;;;9.10;99.90;;;;;;5005563;28;20434;-61
2022/04/23 05:45:40;;;;;;;39.23;24.43;;;9.10;99.90;;;;;;4999432;28;20456;-60
2022/04/23 05:48:06;;;;;;;39.17;24.27;;;9.10;99.90;;;;;;5006389;28;20554;-60
2022/04/23 05:50:31;;;;;;;43.40;24.07;;;9.20;99.90;;;;;;5007543;28;20630;-60
2022/04/23 05:52:57;;;;;;;43.30;25.10;;;9.20;99.90;;;;;;5010220;28;20181;-60
2022/04/23 05:55:23;;;;;;;43.93;26.43;;;9.20;99.90;;;;;;5002344;28;20200;-60
2022/04/23 05:57:49;;;;;;;39.03;24.47;;;9.20;99.90;;;;;;4990868;28;20183;-60
2022/04/23 06:00:15;;;;;;;44.90;25.50;;;9.20;99.90;;;;;;5006509;28;20836;-61
2022/04/23 06:02:41;;;;;;;43.60;25.37;;;9.20;99.90;;;;;;5005836;28;20177;-60
2022/04/23 06:05:07;;;;;;;37.87;23.67;;;9.20;99.90;;;;;;4992381;28;20446;-60
2022/04/23 06:07:33;;;;;;;46.77;27.13;;;9.20;99.90;;;;;;5007849;28;20469;-60
2022/04/23 06:09:59;;;;;;;39.73;24.40;;;9.30;99.90;;;;;;5007843;28;20431;-60
2022/04/23 06:12:25;;;;;;;43.80;24.70;;;9.30;99.90;;;;;;5009993;28;20506;-62
2022/04/23 06:14:51;;;;;;;39.63;22.93;;;9.30;99.90;;;;;;4989150;28;20549;-60
2022/04/23 06:17:26;;;;;;;42.33;24.10;;;9.30;99.90;;;;;;5009316;28;20184;-60
2022/04/23 06:19:52;;;;;;;40.30;23.23;;;9.30;99.90;;;;;;5005883;28;20427;-61
2022/04/23 06:22:19;;;;;;;35.73;22.20;;;9.30;99.90;;;;;;5009466;28;20454;-60
2022/04/23 06:24:45;;;;;;;34.07;22.50;;;9.20;99.90;;;;;;4988980;28;20914;-60
2022/04/23 06:27:11;;;;;;;36.33;22.00;;;9.20;99.90;;;;;;5010102;28;20538;-60
2022/04/23 06:29:38;;;;;;;36.33;22.03;;;9.20;99.90;;;;;;5001728;28;20176;-60
2022/04/23 06:32:04;;;;;;;33.87;21.83;;;9.20;99.90;;;;;;5004022;28;20183;-60
2022/04/23 06:34:30;;;;;;;34.93;21.00;;;9.30;99.90;;;;;;5006110;28;20605;-60
2022/04/23 06:36:55;;;;;;;42.33;22.90;;;9.30;99.90;;;;;;5001480;28;21126;-60
2022/04/23 06:39:21;;;;;;;36.80;21.47;;;9.40;99.90;;;;;;5009800;28;20172;-60
2022/04/23 06:41:47;;;;;;;37.23;22.80;;;9.40;99.90;;;;;;5006296;28;20208;-60
2022/04/23 06:44:13;;;;;;;35.93;20.90;;;9.40;99.90;;;;;;5008450;28;20179;-60
2022/04/23 06:46:38;;;;;;;36.00;22.73;;;9.40;99.90;;;;;;5007501;28;20431;-60
2022/04/23 06:49:07;;;;;;;32.70;21.40;;;9.50;99.90;;;;;;5007602;28;20467;-60
2022/04/23 06:51:33;;;;;;;35.13;21.63;;;9.50;99.90;;;;;;4990542;28;20173;-61
2022/04/23 06:53:59;;;;;;;36.73;22.90;;;9.40;99.90;;;;;;5007302;28;20427;-60
2022/04/23 06:56:25;;;;;;;36.63;22.50;;;9.50;99.90;;;;;;5009006;28;20514;-60
2022/04/23 06:58:51;;;;;;;34.50;20.50;;;9.50;99.90;;;;;;5006345;28;20234;-60
2022/04/23 07:01:17;;;;;;;37.20;22.13;;;9.40;99.90;;;;;;5001501;28;20694;-60
2022/04/23 07:03:43;;;;;;;36.17;22.10;;;9.40;99.90;;;;;;5003085;28;20180;-61
2022/04/23 07:06:08;;;;;;;36.27;22.10;;;9.30;99.90;;;;;;5005405;28;20463;-61
2022/04/23 07:08:34;;;;;;;36.30;22.07;;;9.30;99.90;;;;;;5007483;28;20203;-60
2022/04/23 07:10:59;;;;;;;33.70;20.90;;;9.20;99.90;;;;;;5004151;28;20176;-60
2022/04/23 07:13:25;;;;;;;34.10;21.33;;;9.20;99.90;;;;;;4999298;28;20661;-61
2022/04/23 07:15:51;;;;;;;35.90;21.03;;;9.20;99.90;;;;;;5006377;28;20200;-61
2022/04/23 07:18:16;;;;;;;37.90;21.37;;;9.10;99.90;;;;;;5009439;28;20239;-61
2022/04/23 07:20:42;;;;;;;32.10;20.53;;;9.10;99.90;;;;;;4994004;28;20184;-60
2022/04/23 07:25:52;;;;;;;33.67;20.30;;;9.10;99.90;;;;;;5001034;28;20705;-60
2022/04/23 07:28:20;;;;;;;35.60;20.27;;;9.00;99.90;;;;;;5002773;28;20463;-60
2022/04/23 07:30:47;;;;;;;35.90;20.03;;;9.00;99.90;;;;;;5002749;28;20172;-60
2022/04/23 07:37:28;;;;;;;34.80;20.10;;;9.00;99.90;;;;;;5004627;28;20429;-60
2022/04/23 07:38:42;;;;;;;35.03;20.60;;;9.00;99.90;;;;;;5006567;28;20403;-60
2022/04/23 07:41:09;;;;;;;39.60;19.90;;;9.00;99.90;;;;;;5002820;28;20431;-61
2022/04/23 07:43:34;;;;;;;34.03;20.80;;;9.10;99.90;;;;;;5004148;28;20287;-61
2022/04/23 07:46:00;;;;;;;33.70;20.53;;;9.10;99.90;;;;;;5001553;28;20592;-60
2022/04/23 07:48:26;;;;;;;36.10;21.43;;;9.10;99.90;;;;;;5002437;28;20215;-60
2022/04/23 07:50:52;;;;;;;29.60;18.60;;;9.20;99.90;;;;;;5004815;28;20593;-61
2022/04/23 07:53:17;;;;;;;34.27;21.27;;;9.20;99.90;;;;;;5009068;28;20177;-60
2022/04/23 07:55:43;;;;;;;36.27;20.63;;;9.30;99.90;;;;;;5007284;28;20489;-60
2022/04/23 07:58:09;;;;;;;35.23;20.50;;;9.30;99.90;;;;;;5004808;28;20238;-60
2022/04/23 08:00:36;;;;;;;32.60;20.13;;;9.30;99.90;;;;;;4991439;28;20673;-60
2022/04/23 08:03:03;;;;;;;26.57;16.90;;;9.40;99.90;;;;;;5004014;28;20438;-59
2022/04/23 08:05:29;;;;;;;31.50;19.73;;;9.40;99.90;;;;;;5002241;28;21049;-58
2022/04/23 08:07:55;;;;;;;32.50;18.93;;;9.60;99.90;;;;;;5006923;28;20467;-58
2022/04/23 08:10:21;;;;;;;31.13;18.83;;;9.70;99.90;;;;;;5009677;28;20439;-59
2022/04/23 08:12:47;;;;;;;29.67;17.87;;;9.90;99.90;;;;;;5010741;28;20231;-58
2022/04/23 08:15:13;;;;;;;31.47;18.10;;;10.00;99.90;;;;;;5000802;28;20193;-61
2022/04/23 08:17:39;;;;;;;30.27;18.23;;;10.10;99.00;;;;;;5001821;28;20180;-60
2022/04/23 08:20:06;;;;;;;32.00;19.40;;;10.10;99.40;;;;;;4982375;28;20436;-61
2022/04/23 08:22:32;;;;;;;27.00;17.37;;;10.10;99.40;;;;;;4997421;28;20427;-61
2022/04/23 08:24:58;;;;;;;31.77;18.30;;;10.10;99.70;;;;;;4989190;28;20467;-59
2022/04/23 08:27:23;;;;;;;31.20;18.27;;;10.10;98.80;;;;;;4997059;28;20291;-59
2022/04/23 08:32:34;;;;;;;29.60;17.77;;;10.00;98.00;;;;;;5001329;28;20188;-58
2022/04/23 08:35:00;;;;;;;30.50;17.23;;;10.00;98.90;;;;;;5002190;28;20829;-59
2022/04/23 08:37:26;;;;;;;32.80;16.97;;;10.00;98.40;;;;;;5010273;28;20184;-60
2022/04/23 08:39:52;;;;;;;26.40;16.70;;;10.00;99.20;;;;;;5009087;28;20600;-58
2022/04/23 08:42:18;;;;;;;30.13;17.70;;;9.90;99.50;;;;;;4989271;28;20180;-58
2022/04/23 08:44:45;;;;;;;29.93;18.30;;;9.90;99.80;;;;;;4999608;28;20455;-58
2022/04/23 08:47:11;;;;;;;27.30;17.40;;;9.80;99.60;;;;;;5006374;28;20566;-58
2022/04/23 08:49:41;;;;;;;27.97;16.90;;;9.80;99.70;;;;;;5007261;28;20526;-58
2022/04/23 08:52:32;;;;;;;33.00;18.63;;;9.70;99.90;;;;;;5004445;28;20440;-60
2022/04/23 08:55:05;;;;;;;26.10;16.57;;;9.60;99.90;;;;;;4992631;28;20428;-57
2022/04/23 08:57:32;;;;;;;27.47;16.77;;;9.60;99.90;;;;;;5007438;28;20461;-58
2022/04/23 08:59:59;;;;;;;29.47;16.97;;;9.60;99.90;;;;;;4990123;28;21595;-58
2022/04/23 09:02:26;;;;;;;28.80;16.83;;;9.60;99.90;;;;;;5009636;28;21000;-60
2022/04/23 09:04:54;;;;;;;27.40;17.17;;;9.50;99.90;;;;;;4994339;28;20471;-59
2022/04/23 09:07:26;;;;;;;27.70;17.10;;;9.50;99.90;;;;;;5000965;28;21243;-59
2022/04/23 09:09:56;;;;;;;32.10;17.87;;;9.50;99.90;;;;;;4992788;28;20498;-60
2022/04/23 09:12:24;;;;;;;28.00;17.20;;;9.50;99.90;;;;;;4986704;28;20443;-60
2022/04/23 09:14:51;;;;;;;27.10;18.00;;;9.50;99.90;;;;;;4991043;28;20502;-59
2022/04/23 09:25:41;;;;;;;30.17;17.00;;;9.60;99.90;;;;;;4991319;28;20490;-61
2022/04/23 09:28:29;;;;;;;26.27;15.70;;;9.60;99.90;;;;;;4996210;28;21125;-60
2022/04/23 09:30:56;;;;;;;30.37;18.43;;;9.60;99.90;;;;;;4988442;28;20965;-61
2022/04/23 09:33:41;;;;;;;30.30;18.20;;;9.60;99.90;;;;;;4995730;28;20482;-60
2022/04/23 09:36:07;;;;;;;30.00;18.47;;;9.60;99.90;;;;;;4995247;28;20466;-60
2022/04/23 09:38:32;;;;;;;34.20;19.20;;;9.60;99.90;;;;;;5002453;28;20450;-62
2022/04/23 09:41:15;;;;;;;26.90;16.10;;;9.70;99.90;;;;;;5001938;28;20271;-61
2022/04/23 09:43:42;;;;;;;26.80;16.40;;;9.70;99.90;;;;;;5006811;28;20839;-61
2022/04/23 09:46:09;;;;;;;27.33;17.20;;;9.80;99.70;;;;;;4974185;28;20499;-59
2022/04/23 09:48:35;;;;;;;26.73;17.17;;;9.80;98.70;;;;;;5004857;28;20468;-61
2022/04/23 09:51:01;;;;;;;31.67;18.03;;;9.90;98.40;;;;;;5001258;28;20431;-61
2022/04/23 09:53:27;;;;;;;27.27;16.43;;;9.90;98.70;;;;;;5000189;28;20470;-61
2022/04/23 09:56:05;;;;;;;27.40;17.13;;;10.00;98.60;;;;;;5003784;28;20625;-61
2022/04/23 09:58:32;;;;;;;26.40;16.40;;;10.00;98.40;;;;;;5000158;28;20443;-61
2022/04/23 10:00:59;;;;;;;28.17;16.80;;;10.10;98.10;;;;;;4996877;28;20444;-60
2022/04/23 10:03:29;;;;;;;29.17;17.10;;;10.10;97.60;;;;;;5003932;28;21009;-60
2022/04/23 10:05:56;;;;;;;28.67;17.90;;;10.10;98.40;;;;;;5003217;28;20459;-60
2022/04/23 10:08:27;;;;;;;27.30;17.17;;;10.10;98.20;;;;;;4999720;28;20864;-60
2022/04/23 10:10:54;;;;;;;31.17;16.63;;;10.00;98.20;;;;;;5007183;28;20415;-60
2022/04/23 10:13:28;;;;;;;26.60;16.80;;;10.10;98.50;;;;;;5001943;28;20459;-60
2022/04/23 10:15:55;;;;;;;25.93;15.53;;;10.10;98.40;;;;;;5000815;28;20462;-60
2022/04/23 10:18:21;;;;;;;25.77;17.60;;;10.10;97.90;;;;;;5005339;28;20431;-60
2022/04/23 10:20:56;;;;;;;26.77;16.87;;;10.20;98.30;;;;;;5005761;28;20942;-60
2022/04/23 10:23:40;;;;;;;27.10;16.60;;;10.20;97.70;;;;;;5000662;28;20467;-60
2022/04/23 10:26:19;;;;;;;31.97;15.50;;;10.30;97.50;;;;;;4999269;28;20542;-60
2022/04/23 10:28:45;;;;;;;23.87;15.47;;;10.30;97.30;;;;;;5010272;28;20479;-60
2022/04/23 10:31:16;;;;;;;28.10;17.10;;;10.40;97.50;;;;;;4996235;28;20995;-59
2022/04/23 10:33:46;;;;;;;26.67;15.43;;;10.50;96.20;;;;;;5002768;28;20442;-60
2022/04/23 10:36:13;;;;;;;26.77;16.17;;;10.60;93.90;;;;;;5005157;28;20447;-59
2022/04/23 10:38:42;;;;;;;24.60;15.20;;;10.80;92.30;;;;;;5003910;28;20439;-61
2022/04/23 10:41:10;;;;;;;24.57;16.00;;;10.90;91.10;;;;;;4986164;28;20560;-61
2022/04/23 10:43:46;;;;;;;25.90;17.27;;;11.00;90.10;;;;;;5003293;28;20979;-61
2022/04/23 10:46:35;;;;;;;26.60;17.00;;;11.10;85.50;;;;;;4997748;28;20454;-60
2022/04/23 10:49:20;;;;;;;30.97;17.53;;;11.20;82.10;;;;;;4999000;28;20467;-61
2022/04/23 10:51:53;;;;;;;23.27;16.07;;;11.20;82.40;;;;;;4991510;28;20447;-60
2022/04/23 10:54:21;;;;;;;25.30;16.30;;;11.20;83.20;;;;;;4995160;28;20457;-61
2022/04/23 10:56:51;;;;;;;24.10;16.33;;;11.20;82.50;;;;;;5002074;28;20435;-60
2022/04/23 10:59:34;;;;;;;25.53;16.03;;;11.30;81.70;;;;;;4982463;28;21019;-61
2022/04/23 11:02:06;;;;;;;28.10;16.40;;;11.40;81.30;;;;;;4999457;28;20531;-60
2022/04/23 11:04:33;;;;;;;24.67;16.40;;;11.40;80.00;;;;;;4993578;28;20466;-60
2022/04/23 11:12:54;;;;;;;25.93;16.23;;;11.50;77.80;;;;;;5000574;28;20482;-61
2022/04/23 11:15:20;;;;;;;26.57;16.47;;;11.60;80.30;;;;;;5002511;28;20443;-60
2022/04/23 11:17:49;;;;;;;24.97;15.77;;;11.60;79.70;;;;;;5005319;28;20996;-60
2022/04/23 11:20:26;;;;;;;29.50;17.70;;;11.60;76.20;;;;;;4991772;28;20207;-60
2022/04/23 11:22:52;;;;;;;27.03;16.10;;;11.60;77.30;;;;;;4997520;28;21167;-58
2022/04/23 11:25:18;;;;;;;25.03;16.30;;;11.50;78.10;;;;;;5005022;28;20463;-59
2022/04/23 11:27:48;;;;;;;25.87;15.63;;;11.40;79.50;;;;;;4994350;28;20513;-59
2022/04/23 11:30:14;;;;;;;24.77;16.20;;;11.40;80.50;;;;;;4998723;28;20177;-59
2022/04/23 11:32:40;;;;;;;24.20;16.13;;;11.40;81.50;;;;;;4984678;28;20451;-60
2022/04/23 11:35:07;;;;;;;27.20;16.23;;;11.30;79.30;;;;;;5046605;22;21017;-56
2022/04/23 11:37:34;;;;;;;27.73;15.90;;;11.30;79.60;;;;;;5031728;28;20179;-56
2022/04/23 11:40:11;;;;;;;25.00;16.50;;;11.30;80.70;;;;;;5039507;28;20509;-56
2022/04/23 11:42:44;;;;;;;25.90;16.77;;;11.30;81.00;;;;;;5036787;28;20437;-56
2022/04/23 11:45:13;;;;;;;25.20;16.47;;;11.30;81.50;;;;;;5010228;28;21094;-56
2022/04/23 11:47:38;;;;;;;23.77;16.50;;;11.30;82.30;;;;;;5010282;28;20533;-56
2022/04/23 11:50:16;;;;;;;23.17;16.00;;;11.30;80.60;;;;;;5010037;28;21147;-57
2022/04/23 11:52:43;;;;;;;27.27;17.77;;;11.40;78.90;;;;;;5021799;28;20183;-58
2022/04/23 11:55:20;;;;;;;25.77;17.10;;;11.40;79.60;;;;;;5016490;28;20446;-56
2022/04/23 11:57:55;;;;;;;27.60;17.47;;;11.40;79.00;;;;;;5022432;28;20414;-57
2022/04/23 12:00:22;;;;;;;25.07;16.10;;;11.50;79.40;;;;;;5022610;28;20418;-56
2022/04/23 12:02:48;;;;;;;25.30;17.80;;;11.60;78.00;;;;;;5004280;28;20519;-56
2022/04/23 12:05:22;;;;;;;27.67;16.20;;;11.60;77.10;;;;;;5014720;28;20450;-56
2022/04/23 12:07:48;;;;;;;27.20;16.57;;;11.70;75.40;;;;;;5007180;28;20455;-56
2022/04/23 12:10:14;;;;;;;26.67;17.70;;;11.70;74.50;;;;;;5015035;28;20580;-55
2022/04/23 12:12:40;;;;;;;28.57;17.60;;;11.80;74.40;;;;;;5021711;28;20176;-57
2022/04/23 12:15:10;;;;;;;26.93;17.40;;;11.80;73.60;;;;;;5012030;28;20251;-53
2022/04/23 12:17:50;;;;;;;24.10;16.70;;;11.80;73.10;;;;;;5027118;28;20463;-54
2022/04/23 12:20:19;;;;;;;28.07;17.60;;;11.80;74.10;;;;;;5020171;28;20993;-56
2022/04/23 12:22:59;;;;;;;28.37;17.73;;;11.80;74.80;;;;;;5024307;28;20469;-56
2022/04/23 12:25:27;;;;;;;28.90;18.23;;;11.70;75.80;;;;;;5018601;28;20450;-56
2022/04/23 12:40:44;;;;;;;26.43;17.13;;;11.70;77.30;;;;;;5019626;28;20485;-56
2022/04/23 12:42:04;;;;;;;34.50;17.93;;;11.70;73.60;;;;;;5021719;28;20434;-52
2022/04/23 12:44:52;;;;;;;33.13;19.70;;;11.70;74.70;;;;;;5011003;28;20460;-55
2022/04/23 12:47:36;;;;;;;27.00;17.60;;;11.70;76.60;;;;;;5023625;28;20426;-55
2022/04/23 12:50:07;;;;;;;27.27;18.13;;;11.70;76.60;;;;;;5020615;28;20434;-55
2022/04/23 12:52:44;;;;;;;29.70;17.90;;;11.70;76.80;;;;;;5023426;28;20435;-55
2022/04/23 12:55:17;;;;;;;31.40;17.70;;;11.80;75.60;;;;;;5023199;28;20450;-56
2022/04/23 12:57:44;;;;;;;30.80;17.77;;;12.00;74.10;;;;;;5014023;28;20466;-57
2022/04/23 13:00:13;;;;;;;27.70;17.33;;;12.20;72.90;;;;;;5010644;28;20439;-55
2022/04/23 13:02:40;;;;;;;31.53;17.30;;;12.40;71.50;;;;;;5022748;28;20435;-56
2022/04/23 13:05:08;;;;;;;26.87;17.60;;;12.60;70.70;;;;;;5023543;28;20454;-56
2022/04/23 13:10:19;;;;;;;30.17;18.80;;;12.90;67.40;;;;;;5001970;28;20540;-58
2022/04/23 13:12:45;;;;;;;27.97;18.03;;;12.90;66.70;;;;;;5015058;28;20437;-57